createdAt,value
2023-04-27T00:04:18.239Z,11.10
2023-04-27T00:06:46.248Z,8.50
2023-04-27T00:09:14.184Z,12.00
2023-04-27T00:11:42.244Z,9.30
2023-04-27T00:14:11.446Z,13.20
2023-04-27T00:16:39.364Z,10.70
2023-04-27T00:19:08.611Z,15.10
2023-04-27T00:21:36.737Z,16.10
2023-04-27T00:24:04.791Z,12.80
2023-04-27T00:26:32.664Z,29.30
2023-04-27T00:29:00.678Z,30.20
2023-04-27T00:31:29.885Z,38.70
2023-04-27T00:33:57.778Z,37.50
2023-04-27T00:36:27.155Z,42.40
2023-04-27T00:38:55.028Z,34.70
2023-04-27T00:41:23.263Z,29.50
2023-04-27T00:43:51.121Z,26.40
2023-04-27T00:46:19.783Z,27.10
2023-04-27T00:48:49.413Z,32.40
2023-04-27T00:51:17.677Z,36.00
2023-04-27T00:53:45.594Z,37.60
2023-04-27T00:56:13.836Z,42.00
2023-04-27T00:58:41.707Z,50.00
2023-04-27T01:01:10.877Z,45.50
2023-04-27T01:03:38.840Z,34.80
2023-04-27T01:06:08.472Z,30.20
2023-04-27T01:08:36.651Z,48.90
2023-04-27T01:11:04.881Z,48.30
2023-04-27T01:13:33.028Z,48.70
2023-04-27T01:16:00.985Z,48.90
2023-04-27T01:18:29.115Z,34.40
2023-04-27T01:20:57.304Z,36.60
2023-04-27T01:23:26.898Z,43.50
2023-04-27T01:25:54.751Z,50.70
2023-04-27T01:28:22.612Z,56.20
2023-04-27T01:30:50.562Z,66.80
2023-04-27T01:33:18.532Z,54.70
2023-04-27T01:35:46.908Z,62.90
2023-04-27T01:38:14.822Z,58.00
2023-04-27T01:40:44.060Z,53.60
2023-04-27T01:43:11.924Z,47.70
2023-04-27T01:45:39.770Z,45.00
2023-04-27T01:48:07.664Z,56.80
2023-04-27T01:50:35.584Z,53.90
2023-04-27T01:53:03.453Z,59.00
2023-04-27T01:55:31.325Z,64.60
2023-04-27T01:58:00.685Z,55.40
2023-04-27T02:00:28.612Z,65.70
2023-04-27T02:02:57.515Z,71.00
2023-04-27T02:05:25.516Z,65.60
2023-04-27T02:07:53.390Z,64.90
2023-04-27T02:10:22.221Z,53.60
2023-04-27T02:12:50.084Z,55.20
2023-04-27T02:15:19.309Z,52.10
2023-04-27T02:17:47.230Z,47.90
2023-04-27T02:20:15.237Z,47.40
2023-04-27T02:22:44.522Z,41.90
2023-04-27T02:25:12.812Z,44.50
2023-04-27T02:27:41.317Z,45.50
2023-04-27T02:30:10.845Z,45.60
2023-04-27T02:32:41.199Z,45.10
2023-04-27T02:35:09.696Z,52.00
2023-04-27T02:37:37.780Z,51.50
2023-04-27T02:40:07.400Z,55.50
2023-04-27T02:42:35.618Z,56.90
2023-04-27T02:45:03.502Z,57.30
2023-04-27T02:47:31.343Z,59.50
2023-04-27T02:50:00.584Z,60.70
2023-04-27T02:52:28.479Z,49.10
2023-04-27T02:54:56.337Z,45.40
2023-04-27T02:57:24.184Z,49.10
2023-04-27T02:59:52.045Z,54.20
2023-04-27T03:02:19.916Z,54.50
2023-04-27T03:04:47.884Z,56.60
2023-04-27T03:07:17.243Z,47.80
2023-04-27T03:09:45.107Z,43.90
2023-04-27T03:12:13.247Z,44.00
2023-04-27T03:14:41.174Z,44.60
2023-04-27T03:17:09.131Z,48.90
2023-04-27T03:19:37.133Z,41.80
2023-04-27T03:22:05.000Z,40.20
2023-04-27T03:24:34.330Z,40.90
2023-04-27T03:27:02.238Z,42.40
2023-04-27T03:29:30.235Z,49.80
2023-04-27T03:31:58.326Z,53.40
2023-04-27T03:34:26.305Z,42.50
2023-04-27T03:36:54.151Z,51.70
2023-04-27T03:39:22.020Z,53.60
2023-04-27T03:41:51.243Z,52.80
2023-04-27T03:44:19.133Z,60.10
2023-04-27T03:46:46.984Z,61.50
2023-04-27T03:49:15.001Z,60.50
2023-04-27T03:51:43.982Z,54.80
2023-04-27T03:54:11.951Z,59.10
2023-04-27T03:56:39.915Z,60.90
2023-04-27T03:59:09.463Z,63.90
2023-04-27T04:01:37.502Z,63.20
2023-04-27T04:04:05.598Z,59.30
2023-04-27T04:06:33.549Z,58.60
2023-04-27T04:09:01.486Z,56.30
2023-04-27T04:11:29.428Z,63.60
2023-04-27T04:13:57.257Z,60.40
2023-04-27T04:16:26.541Z,58.50
2023-04-27T04:18:54.437Z,64.50
2023-04-27T04:21:22.252Z,59.70
2023-04-27T04:23:50.139Z,65.50
2023-04-27T04:26:17.974Z,66.20
2023-04-27T04:28:46.116Z,63.00
2023-04-27T04:31:16.014Z,61.90
2023-04-27T04:33:45.353Z,58.10
2023-04-27T04:36:13.244Z,61.00
2023-04-27T04:38:41.375Z,58.30
2023-04-27T04:41:10.486Z,60.70
2023-04-27T04:43:38.517Z,63.30
2023-04-27T04:46:06.613Z,63.10
2023-04-27T04:48:34.682Z,63.70
2023-04-27T04:51:05.560Z,62.10
2023-04-27T04:53:33.531Z,64.60
2023-04-27T04:56:08.989Z,59.40
2023-04-27T04:58:36.838Z,58.20
2023-04-27T05:01:04.746Z,55.00
2023-04-27T05:03:32.803Z,57.40
2023-04-27T05:06:00.775Z,55.90
2023-04-27T05:08:30.112Z,53.10
2023-04-27T05:10:57.997Z,55.20
2023-04-27T05:13:26.839Z,52.90
2023-04-27T05:15:54.848Z,50.00
2023-04-27T05:18:22.824Z,41.80
2023-04-27T05:20:50.754Z,43.50
2023-04-27T05:23:18.671Z,45.90
2023-04-27T05:25:47.893Z,47.80
2023-04-27T05:28:16.219Z,45.30
2023-04-27T05:30:44.124Z,49.90
2023-04-27T05:33:12.025Z,42.50
2023-04-27T05:35:39.920Z,48.00
2023-04-27T05:38:07.751Z,41.70
2023-04-27T05:40:35.786Z,43.70
2023-04-27T05:43:05.708Z,41.30
2023-04-27T05:45:33.807Z,43.10
2023-04-27T05:48:01.848Z,42.80
2023-04-27T05:50:29.801Z,36.10
2023-04-27T05:52:57.688Z,40.90
2023-04-27T05:55:25.573Z,43.10
2023-04-27T05:58:06.608Z,43.00
2023-04-27T06:00:38.323Z,39.40
2023-04-27T06:03:06.446Z,33.30
2023-04-27T06:05:34.808Z,31.50
2023-04-27T06:08:02.983Z,17.20
2023-04-27T06:10:31.035Z,25.50
2023-04-27T06:12:58.885Z,18.90
2023-04-27T06:15:26.873Z,21.90
2023-04-27T06:17:56.294Z,15.00
2023-04-27T06:20:24.224Z,7.70
2023-04-27T06:22:52.242Z,7.70
2023-04-27T06:25:20.108Z,14.90
2023-04-27T06:27:47.954Z,3.60
2023-04-27T06:30:15.867Z,3.50
2023-04-27T06:32:43.783Z,5.80
2023-04-27T06:35:13.215Z,9.70
2023-04-27T06:37:41.261Z,1.00
2023-04-27T06:40:09.552Z,1.00
2023-04-27T06:42:37.563Z,1.00
2023-04-27T06:45:07.210Z,1.00
2023-04-27T06:47:35.182Z,1.00
2023-04-27T06:50:03.121Z,1.00
2023-04-27T06:52:34.114Z,1.00
2023-04-27T06:55:01.946Z,1.00
2023-04-27T06:57:29.793Z,1.00
2023-04-27T06:59:57.653Z,1.00
2023-04-27T07:02:25.768Z,1.00
2023-04-27T07:04:53.783Z,1.00
2023-04-27T07:07:21.736Z,1.00
2023-04-27T07:09:51.087Z,1.00
2023-04-27T07:12:19.004Z,1.00
2023-04-27T07:14:46.922Z,1.00
2023-04-27T07:17:14.816Z,1.00
2023-04-27T07:19:42.721Z,1.00
2023-04-27T07:22:11.600Z,1.00
2023-04-27T07:24:39.579Z,1.00
2023-04-27T07:27:09.363Z,1.00
2023-04-27T07:29:38.001Z,1.00
2023-04-27T07:32:06.661Z,1.00
2023-04-27T07:34:49.034Z,1.00
2023-04-27T07:37:20.492Z,1.00
2023-04-27T07:39:50.124Z,1.00
2023-04-27T07:42:19.499Z,1.00
2023-04-27T07:44:47.391Z,1.00
2023-04-27T07:47:15.291Z,1.00
2023-04-27T07:49:45.505Z,1.00
2023-04-27T07:52:13.395Z,1.00
2023-04-27T07:54:41.545Z,1.00
2023-04-27T07:57:10.466Z,1.00
2023-04-27T07:59:40.304Z,1.00
2023-04-27T08:02:20.413Z,1.00
2023-04-27T08:04:49.110Z,1.00
2023-04-27T08:07:17.814Z,1.00
2023-04-27T08:09:45.860Z,1.00
2023-04-27T08:12:13.770Z,1.00
2023-04-27T08:14:43.069Z,1.00
2023-04-27T08:17:11.285Z,1.00
2023-04-27T08:19:39.234Z,4.60
2023-04-27T08:22:07.112Z,4.20
2023-04-27T08:24:34.971Z,3.40
2023-04-27T08:27:03.681Z,1.00
2023-04-27T08:29:31.757Z,3.90
2023-04-27T08:32:02.277Z,2.40
2023-04-27T08:34:30.389Z,2.30
2023-04-27T08:36:58.507Z,5.70
2023-04-27T08:39:26.367Z,1.80
2023-04-27T08:41:54.448Z,5.30
2023-04-27T08:44:22.406Z,6.50
2023-04-27T08:46:50.891Z,2.80
2023-04-27T08:49:20.973Z,5.50
2023-04-27T08:51:49.161Z,6.10
2023-04-27T08:54:17.046Z,5.20
2023-04-27T08:56:44.922Z,3.20
2023-04-27T08:59:16.864Z,3.80
2023-04-27T09:01:45.905Z,3.60
2023-04-27T09:04:14.068Z,4.60
2023-04-27T09:06:43.382Z,3.10
2023-04-27T09:09:11.514Z,1.00
2023-04-27T09:11:40.002Z,2.80
2023-04-27T09:14:17.004Z,4.00
2023-04-27T09:16:45.072Z,5.10
2023-04-27T09:19:13.517Z,5.80
2023-04-27T09:21:43.448Z,9.50
2023-04-27T09:24:12.565Z,8.20
2023-04-27T09:26:42.555Z,3.50
2023-04-27T09:29:10.605Z,3.30
2023-04-27T09:31:38.547Z,4.00
2023-04-27T09:34:06.934Z,5.50
2023-04-27T09:36:35.380Z,6.60
2023-04-27T09:39:05.528Z,8.20
2023-04-27T09:41:33.781Z,8.10
2023-04-27T09:44:01.960Z,6.00
2023-04-27T09:46:30.397Z,4.40
2023-04-27T09:48:58.558Z,5.50
2023-04-27T09:51:26.464Z,5.80
2023-04-27T09:53:57.516Z,3.80
2023-04-27T09:56:33.520Z,3.80
2023-04-27T09:59:16.744Z,1.30
2023-04-27T10:01:47.674Z,1.80
2023-04-27T10:04:27.837Z,1.00
2023-04-27T10:07:00.254Z,1.10
2023-04-27T10:09:30.496Z,1.00
2023-04-27T10:12:14.308Z,1.10
2023-04-27T10:14:49.426Z,1.00
2023-04-27T10:17:17.421Z,3.70
2023-04-27T10:19:57.324Z,1.50
2023-04-27T10:22:37.653Z,1.20
2023-04-27T10:25:13.710Z,1.40
2023-04-27T10:27:42.960Z,1.00
2023-04-27T10:30:11.989Z,1.00
2023-04-27T10:32:51.480Z,2.40
2023-04-27T10:35:20.098Z,4.00
2023-04-27T10:37:48.673Z,1.00
2023-04-27T10:40:17.983Z,2.50
2023-04-27T10:42:49.745Z,2.10
2023-04-27T10:45:31.829Z,1.00
2023-04-27T10:48:09.061Z,1.00
2023-04-27T10:50:37.151Z,1.00
2023-04-27T10:53:06.204Z,3.50
2023-04-27T10:55:34.460Z,1.30
2023-04-27T10:58:04.247Z,1.10
2023-04-27T11:00:33.095Z,1.00
2023-04-27T11:03:11.634Z,1.00
2023-04-27T11:05:39.739Z,1.00
2023-04-27T11:08:08.348Z,1.00
2023-04-27T11:10:37.086Z,1.00
2023-04-27T11:13:13.296Z,1.00
2023-04-27T11:15:48.145Z,1.00
2023-04-27T11:18:16.671Z,1.00
2023-04-27T11:20:44.738Z,1.00
2023-04-27T11:23:12.816Z,1.00
2023-04-27T11:25:40.726Z,1.00
2023-04-27T11:28:19.469Z,1.00
2023-04-27T11:30:47.718Z,1.00
2023-04-27T11:33:15.951Z,1.00
2023-04-27T11:35:43.825Z,1.80
2023-04-27T11:38:16.905Z,1.00
2023-04-27T11:40:44.821Z,1.00
2023-04-27T11:43:13.447Z,1.00
2023-04-27T11:45:44.885Z,1.00
2023-04-27T11:48:16.793Z,1.00
2023-04-27T11:50:47.498Z,1.00
2023-04-27T11:53:17.410Z,1.00
2023-04-27T11:55:53.115Z,1.00
2023-04-27T11:58:22.032Z,4.20
2023-04-27T12:00:51.412Z,4.30
2023-04-27T12:03:19.540Z,1.00
2023-04-27T12:05:51.215Z,1.00
2023-04-27T12:08:19.341Z,1.00
2023-04-27T12:10:47.285Z,1.00
2023-04-27T12:13:15.296Z,1.00
2023-04-27T12:15:43.407Z,1.00
2023-04-27T12:18:12.628Z,1.20
2023-04-27T12:20:40.891Z,1.60
2023-04-27T12:23:08.818Z,1.60
2023-04-27T12:25:36.818Z,1.50
2023-04-27T12:28:04.940Z,2.00
2023-04-27T12:30:32.825Z,1.00
2023-04-27T12:33:00.921Z,1.00
2023-04-27T12:35:32.163Z,1.00
2023-04-27T12:38:00.133Z,1.00
2023-04-27T12:40:28.052Z,1.30
2023-04-27T12:42:56.206Z,2.60
2023-04-27T12:45:24.310Z,1.10
2023-04-27T12:48:02.523Z,1.90
2023-04-27T12:50:33.561Z,2.50
2023-04-27T12:53:01.485Z,2.60
2023-04-27T12:55:32.914Z,1.00
2023-04-27T12:58:01.948Z,1.00
2023-04-27T13:00:30.414Z,1.00
2023-04-27T13:02:59.062Z,1.00
2023-04-27T13:05:27.563Z,1.00
2023-04-27T13:07:58.007Z,1.00
2023-04-27T13:10:25.872Z,1.00
2023-04-27T13:12:53.741Z,1.00
2023-04-27T13:15:21.810Z,1.00
2023-04-27T13:17:49.742Z,1.00
2023-04-27T13:20:17.633Z,1.00
2023-04-27T13:22:45.773Z,1.00
2023-04-27T13:25:16.516Z,1.00
2023-04-27T13:27:44.475Z,1.00
2023-04-27T13:30:12.588Z,2.20
2023-04-27T13:32:40.582Z,1.00
2023-04-27T13:35:09.128Z,1.00
2023-04-27T13:37:37.000Z,1.00
2023-04-27T13:40:06.560Z,2.30
2023-04-27T13:42:35.858Z,1.00
2023-04-27T13:45:04.281Z,1.00
2023-04-27T13:47:37.981Z,1.00
2023-04-27T13:50:06.798Z,1.00
2023-04-27T13:52:35.562Z,1.00
2023-04-27T13:55:04.144Z,1.00
2023-04-27T13:57:32.067Z,1.00
2023-04-27T14:00:01.767Z,1.50
2023-04-27T14:02:30.465Z,1.50
2023-04-27T14:04:58.664Z,2.00
2023-04-27T14:07:26.703Z,1.70
2023-04-27T14:09:54.596Z,1.50
2023-04-27T14:12:22.430Z,1.00
2023-04-27T14:14:50.356Z,1.00
2023-04-27T14:17:19.564Z,1.90
2023-04-27T14:19:47.518Z,1.00
2023-04-27T14:22:15.775Z,1.00
2023-04-27T14:24:43.741Z,1.00
2023-04-27T14:27:11.586Z,4.30
2023-04-27T14:29:39.540Z,1.90
2023-04-27T14:32:07.497Z,1.60
2023-04-27T14:34:37.273Z,2.50
2023-04-27T14:37:05.114Z,1.00
2023-04-27T14:39:33.038Z,2.90
2023-04-27T14:42:00.949Z,2.60
2023-04-27T14:44:29.073Z,1.00
2023-04-27T14:46:58.212Z,4.40
2023-04-27T14:49:26.245Z,2.40
2023-04-27T14:51:55.816Z,4.30
2023-04-27T14:54:23.800Z,3.70
2023-04-27T14:56:51.924Z,2.50
2023-04-27T14:59:19.838Z,3.90
2023-04-27T15:01:49.015Z,4.90
2023-04-27T15:04:17.361Z,4.60
2023-04-27T15:06:47.399Z,4.70
2023-04-27T15:09:16.843Z,4.10
2023-04-27T15:11:44.687Z,5.40
2023-04-27T15:14:12.565Z,5.00
2023-04-27T15:16:40.535Z,6.40
2023-04-27T15:19:08.544Z,6.00
2023-04-27T15:21:36.553Z,4.90
2023-04-27T15:24:04.611Z,5.90
2023-04-27T15:26:33.865Z,6.60
2023-04-27T15:29:01.777Z,5.10
2023-04-27T15:31:29.707Z,6.40
2023-04-27T15:33:57.629Z,4.70
2023-04-27T15:36:26.770Z,5.70
2023-04-27T15:38:54.705Z,5.40
2023-04-27T15:41:23.015Z,6.60
2023-04-27T15:43:52.719Z,5.30
2023-04-27T15:46:20.835Z,6.20
2023-04-27T15:48:48.805Z,3.90
2023-04-27T15:51:16.740Z,6.70
2023-04-27T15:53:44.643Z,5.50
2023-04-27T15:56:12.553Z,5.50
2023-04-27T15:58:40.448Z,5.80
2023-04-27T16:01:09.715Z,4.00
2023-04-27T16:03:38.239Z,6.30
2023-04-27T16:06:07.069Z,6.20
2023-04-27T16:08:34.904Z,6.30
2023-04-27T16:11:02.851Z,7.00
2023-04-27T16:13:32.522Z,6.40
2023-04-27T16:16:00.584Z,7.80
2023-04-27T16:18:29.902Z,7.30
2023-04-27T16:20:58.711Z,8.10
2023-04-27T16:23:26.586Z,7.70
2023-04-27T16:25:54.440Z,8.60
2023-04-27T16:28:22.297Z,8.20
2023-04-27T16:30:50.499Z,9.10
2023-04-27T16:33:21.194Z,9.00
2023-04-27T16:35:50.540Z,9.20
2023-04-27T16:38:18.423Z,9.20
2023-04-27T16:40:46.304Z,10.10
2023-04-27T16:43:14.187Z,10.30
2023-04-27T16:45:42.692Z,10.40
2023-04-27T16:48:13.406Z,10.90
2023-04-27T16:50:42.062Z,9.90
2023-04-27T16:53:13.549Z,11.20
2023-04-27T16:55:41.481Z,11.20
2023-04-27T16:58:09.399Z,12.40
2023-04-27T17:00:37.749Z,12.10
2023-04-27T17:03:05.935Z,12.30
2023-04-27T17:05:33.855Z,11.20
2023-04-27T17:08:04.246Z,12.80
2023-04-27T17:10:36.528Z,14.30
2023-04-27T17:13:05.107Z,13.70
2023-04-27T17:15:32.991Z,13.90
2023-04-27T17:18:02.981Z,14.10
2023-04-27T17:20:30.934Z,13.90
2023-04-27T17:22:59.091Z,14.40
2023-04-27T17:25:27.070Z,13.80
2023-04-27T17:27:56.294Z,13.60
2023-04-27T17:30:25.259Z,14.90
2023-04-27T17:32:53.161Z,14.40
2023-04-27T17:35:21.600Z,15.50
2023-04-27T17:37:49.488Z,16.00
2023-04-27T17:40:20.690Z,15.80
2023-04-27T17:42:48.627Z,15.70
2023-04-27T17:45:18.054Z,16.60
2023-04-27T17:47:46.107Z,15.80
2023-04-27T17:50:14.734Z,16.20
2023-04-27T17:52:42.603Z,16.90
2023-04-27T17:55:10.512Z,16.60
2023-04-27T17:57:38.405Z,15.90
2023-04-27T18:00:07.067Z,16.70
2023-04-27T18:02:36.443Z,16.70
2023-04-27T18:05:04.509Z,17.20
2023-04-27T18:07:32.367Z,17.90
2023-04-27T18:10:00.269Z,17.10
2023-04-27T18:12:28.361Z,18.00
2023-04-27T18:14:56.326Z,17.30
2023-04-27T18:17:24.192Z,17.30
2023-04-27T18:20:06.944Z,16.90
2023-04-27T18:22:36.270Z,17.50
2023-04-27T18:25:04.339Z,17.30
2023-04-27T18:27:32.965Z,19.20
2023-04-27T18:30:01.050Z,18.40
2023-04-27T18:32:28.941Z,20.10
2023-04-27T18:34:58.252Z,18.90
2023-04-27T18:37:26.141Z,19.00
2023-04-27T18:39:54.079Z,19.20
2023-04-27T18:42:22.725Z,20.20
2023-04-27T18:44:50.588Z,22.30
2023-04-27T18:47:18.415Z,22.10
2023-04-27T18:49:46.280Z,20.80
2023-04-27T18:52:15.591Z,17.80
2023-04-27T18:54:43.455Z,17.30
2023-04-27T18:57:11.341Z,18.10
2023-04-27T18:59:39.731Z,16.70
2023-04-27T19:02:07.584Z,15.70
2023-04-27T19:04:35.772Z,14.80
2023-04-27T19:07:03.817Z,12.80
2023-04-27T19:09:33.055Z,13.70
2023-04-27T19:12:03.284Z,12.30
2023-04-27T19:14:32.038Z,10.00
2023-04-27T19:16:59.978Z,5.90
2023-04-27T19:19:27.931Z,3.00
2023-04-27T19:21:55.998Z,1.00
2023-04-27T19:24:23.840Z,1.00
2023-04-27T19:26:53.080Z,1.00
2023-04-27T19:29:23.205Z,1.00
2023-04-27T19:31:51.104Z,1.00
2023-04-27T19:34:19.047Z,1.00
2023-04-27T19:36:47.185Z,1.00
2023-04-27T19:39:15.949Z,1.00
2023-04-27T19:41:43.893Z,1.00
2023-04-27T19:44:13.335Z,1.00
2023-04-27T19:46:41.417Z,1.00
2023-04-27T19:49:09.322Z,1.00
2023-04-27T19:51:37.159Z,1.00
2023-04-27T19:54:05.011Z,1.00
2023-04-27T19:56:34.227Z,1.00
2023-04-27T19:59:02.120Z,1.00
2023-04-27T20:01:31.353Z,1.00
2023-04-27T20:03:59.410Z,1.00
2023-04-27T20:06:27.337Z,1.00
2023-04-27T20:08:55.175Z,1.00
2023-04-27T20:11:23.120Z,1.00
2023-04-27T20:13:51.076Z,1.00
2023-04-27T20:16:19.806Z,1.00
2023-04-27T20:18:49.711Z,1.00
2023-04-27T20:21:17.571Z,1.00
2023-04-27T20:23:45.440Z,1.00
2023-04-27T20:26:13.316Z,1.00
2023-04-27T20:28:41.204Z,1.00
2023-04-27T20:31:09.058Z,1.00
2023-04-27T20:33:36.935Z,1.00
2023-04-27T20:36:14.139Z,4.80
2023-04-27T20:38:44.934Z,1.00
2023-04-27T20:41:13.210Z,1.00
2023-04-27T20:43:41.341Z,1.00
2023-04-27T20:46:09.247Z,1.00
2023-04-27T20:48:37.118Z,1.00
2023-04-27T20:51:06.340Z,1.00
2023-04-27T20:53:34.219Z,1.00
2023-04-27T20:56:02.359Z,1.00
2023-04-27T20:58:30.214Z,1.00
2023-04-27T21:00:58.145Z,1.00
2023-04-27T21:03:26.159Z,1.00
2023-04-27T21:05:54.260Z,1.00
2023-04-27T21:08:23.502Z,1.00
2023-04-27T21:10:51.367Z,1.00
2023-04-27T21:13:19.568Z,1.00
2023-04-27T21:15:47.415Z,1.00
2023-04-27T21:18:29.065Z,1.00
2023-04-27T21:20:57.838Z,1.00
2023-04-27T21:23:27.024Z,1.00
2023-04-27T21:25:54.859Z,1.00
2023-04-27T21:28:22.759Z,1.00
2023-04-27T21:30:50.637Z,1.00
2023-04-27T21:33:18.518Z,1.00
2023-04-27T21:35:46.411Z,1.00
2023-04-27T21:38:14.271Z,1.00
2023-04-27T21:40:43.572Z,1.00
2023-04-27T21:43:11.513Z,1.00
2023-04-27T21:45:39.599Z,1.00
2023-04-27T21:48:07.496Z,1.00
2023-04-27T21:50:35.375Z,1.00
2023-04-27T21:53:03.229Z,1.00
2023-04-27T21:55:31.128Z,1.00
2023-04-27T21:58:00.371Z,1.00
2023-04-27T22:00:28.545Z,1.00
2023-04-27T22:02:56.832Z,1.00
2023-04-27T22:05:24.911Z,1.00
2023-04-27T22:07:53.369Z,1.00
2023-04-27T22:10:21.254Z,1.00
2023-04-27T22:12:49.091Z,1.00
2023-04-27T22:15:19.796Z,1.00
2023-04-27T22:17:47.734Z,1.00
2023-04-27T22:20:16.145Z,1.00
2023-04-27T22:22:44.174Z,1.00
2023-04-27T22:25:12.311Z,1.00
2023-04-27T22:27:45.100Z,1.00
2023-04-27T22:30:14.222Z,1.00
2023-04-27T22:32:43.525Z,1.00
2023-04-27T22:35:24.798Z,1.00
2023-04-27T22:37:54.759Z,1.00
2023-04-27T22:40:22.724Z,1.00
2023-04-27T22:42:50.696Z,1.00
2023-04-27T22:45:18.584Z,1.00
2023-04-27T22:47:49.284Z,1.00
2023-04-27T22:50:17.383Z,1.00
2023-04-27T22:52:45.282Z,1.00
2023-04-27T22:55:13.277Z,1.00
2023-04-27T22:57:41.478Z,4.60
2023-04-27T23:00:11.465Z,1.80
2023-04-27T23:02:40.280Z,1.10
2023-04-27T23:05:10.652Z,1.00
2023-04-27T23:07:38.816Z,3.00
2023-04-27T23:10:07.174Z,2.70
2023-04-27T23:12:35.043Z,1.00
2023-04-27T23:15:03.022Z,1.00
2023-04-27T23:17:31.570Z,1.70
2023-04-27T23:20:00.237Z,1.00
2023-04-27T23:22:29.590Z,2.60
2023-04-27T23:24:57.438Z,1.00
2023-04-27T23:27:25.291Z,3.40
2023-04-27T23:29:53.172Z,5.90
2023-04-27T23:32:21.132Z,1.00
2023-04-27T23:34:49.002Z,11.80
2023-04-27T23:37:17.204Z,7.90
2023-04-27T23:39:46.503Z,1.00
2023-04-27T23:42:14.329Z,1.00
2023-04-27T23:44:42.531Z,4.10
2023-04-27T23:47:10.650Z,1.00
2023-04-27T23:49:38.525Z,5.20
2023-04-27T23:52:06.428Z,18.80
2023-04-27T23:54:34.277Z,7.40
2023-04-27T23:57:04.153Z,1.00
2023-04-27T23:59:34.218Z,16.70
